DW0269 Weather Reports


Display with metric or nautical units.
time (UTC)temp
F
wind
direction
speed
MPH
gust
MPH
rain 1hr
in
rain 24hr
in
rain mn
in
humidity
%
barometer
mb
20220924233748 77 273 2.0 12.0 0.00 0.00 0.00 75 948.9
20220924233247 78 318 1.0 12.0 0.00 0.00 0.00 75 948.9
20220924232746 78 351 0.0 12.0 0.00 0.00 0.00 75 949.0
20220924232245 78 27 2.0 12.0 0.00 0.00 0.00 74 948.9
20220924231744 79 339 1.0 12.0 0.00 0.00 0.00 72 948.4
20220924230727 80 57 2.0 12.0 0.00 0.00 0.00 69 948.8
20220924230226 82 57 2.0 12.0 0.00 0.00 0.00 67 948.8
20220924225209 82 69 2.0 12.0 0.00 0.00 0.00 69 949.0
20220924224708 81 44 2.0 12.0 0.00 0.00 0.00 70 949.1
20220924224207 81 39 2.0 12.0 0.00 0.00 0.00 73 949.1
20220924223150 80 39 3.0 12.0 0.00 0.00 0.00 74 949.2
20220924222649 78 40 3.0 12.0 0.00 0.00 0.00 77 949.2
20220924222148 78 42 4.0 12.0 0.00 0.00 0.00 79 949.5
20220924221131 77 42 4.0 12.0 0.00 0.00 0.00 82 949.5
20220924220114 74 38 3.0 12.0 0.00 0.00 0.00 87 948.6
20220924215613 73 36 4.0 12.0 0.00 0.00 0.00 91 949.8
20220924215112 72 30 4.0 12.0 0.00 0.00 0.00 88 950.0
20220924214055 73 31 5.0 12.0 0.00 0.00 0.00 86 948.9
20220924212522 74 20 4.0 12.0 0.00 0.00 0.00 82 950.2
20220924211505 77 37 4.0 12.0 0.00 0.00 0.00 77 950.5
20220924205932 79 141 2.0 12.0 0.00 0.00 0.00 76 950.8
20220924204915 79 240 5.0 12.0 0.00 0.00 0.00 77 950.8
20220924203342 78 265 3.0 12.0 0.00 0.00 0.00 75 951.1
20220924202841 78 241 6.0 12.0 0.00 0.00 0.00 73 951.1
20220924202340 78 233 4.0 12.0 0.00 0.00 0.00 75 951.1
20220924201323 78 247 5.0 12.0 0.00 0.00 0.00 76 951.4
20220924200822 77 265 5.0 12.0 0.00 0.00 0.00 71 951.1
20220924195805 77 239 2.0 12.0 0.00 0.00 0.00 73 950.1
20220924195305 76 294 1.0 12.0 0.00 0.00 0.00 75 951.1
20220924194804 76 224 2.0 12.0 0.00 0.00 0.00 77 951.0
20220924194303 76 246 5.0 12.0 0.00 0.00 0.00 77 951.0
20220924193802 75 270 2.0 12.0 0.00 0.00 0.00 77 951.0
20220924192744 77 232 2.0 12.0 0.00 0.00 0.00 72 950.8
20220924191727 76 265 2.0 12.0 0.00 0.00 0.00 72 950.6
20220924191226 76 212 1.0 12.0 0.00 0.00 0.00 75 950.8
20220924190726 76 175 3.0 12.0 0.00 0.00 0.00 76 950.5
20220924185708 76 159 2.0 12.0 0.00 0.00 0.00 77 950.6
20220924185208 75 167 2.0 12.0 0.00 0.00 0.00 78 950.3
20220924184706 75 151 1.0 12.0 0.00 0.00 0.00 79 950.2
20220924183133 74 178 1.0 12.0 0.00 0.00 0.00 81 950.4
20220924182632 73 152 0.0 12.0 0.00 0.00 0.00 82 950.3
20220924182131 73 131 2.0 12.0 0.00 0.00 0.00 82 949.9
20220924181631 72 125 2.0 12.0 0.00 0.00 0.00 85 950.3
20220924181130 72 105 0.0 12.0 0.00 0.00 0.00 85 950.1
20220924180112 71 133 0.0 12.0 0.00 0.00 0.00 87 949.9
20220924175056 69 19 0.0 12.0 0.00 0.00 0.00 89 949.7
20220924174555 69 19 0.0 12.0 0.00 0.00 0.00 89 949.6
20220924174054 69 19 0.0 12.0 0.00 0.00 0.00 90 949.6
20220924173037 68 19 0.0 12.0 0.00 0.00 0.00 91 949.4
20220924172536 68 19 0.0 12.0 0.00 0.00 0.00 91 949.6
20220924171518 67 19 0.0 12.0 0.00 0.00 0.00 92 948.3
20220924170501 66 0 1.0 12.0 0.00 0.00 0.00 92 948.9
20220924165445 65 0 1.0 12.0 0.00 0.00 0.00 93 948.9
20220924164944 65 0 2.0 12.0 0.00 0.00 0.00 93 948.6
20220924163411 64 0 2.0 12.0 0.00 0.00 0.00 93 949.0
20220924162910 64 15 2.0 12.0 0.00 0.00 0.00 93 949.0
20220924162409 64 8 0.0 12.0 0.00 0.00 0.00 94 948.9
20220924161352 64 7 0.0 12.0 0.00 0.00 0.00 93 949.1
20220924160851 65 0 0.0 12.0 0.00 0.00 0.00 92 949.2
20220924160350 65 0 0.0 12.0 0.00 0.00 0.00 92 948.8
20220924155849 65 0 0.0 12.0 0.00 0.00 0.00 92 948.7
20220924154832 64 0 0.0 12.0 0.00 0.00 0.00 92 947.9
20220924154331 64 0 0.0 12.0 0.00 0.00 0.00 93 948.7
20220924152242 65 0 0.0 12.0 0.00 0.00 0.00 93 948.8
20220924150709 64 0 0.0 12.0 0.00 0.00 0.00 93 948.6
20220924150208 64 0 0.0 12.0 0.00 0.00 0.00 93 948.5
20220924145707 64 0 0.0 12.0 0.00 0.00 0.00 94 947.0
20220924143102 65 0 0.0 12.0 0.00 0.00 0.00 93 948.2
20220924142045 65 0 0.0 12.0 0.00 0.00 0.00 93 947.1
20220924141028 65 0 0.0 12.0 0.00 0.00 0.00 93 948.3
20220924140527 65 0 0.0 12.0 0.00 0.00 0.00 93 948.2
20220924135510 65 0 0.0 12.0 0.00 0.00 0.00 93 947.9
20220924135009 65 0 0.0 12.0 0.00 0.00 0.00 93 948.1
20220924134508 65 0 0.0 12.0 0.00 0.00 0.00 93 948.3
20220924134007 65 0 0.0 12.0 0.00 0.00 0.00 93 948.2
20220924133506 65 0 0.0 12.0 0.00 0.00 0.00 93 948.2
20220924133005 65 0 0.0 12.0 0.00 0.00 0.00 93 948.1
20220924132504 65 0 0.0 12.0 0.00 0.00 0.00 92 947.2
20220924131447 65 0 0.0 12.0 0.00 0.00 0.00 93 948.3
20220924130946 65 0 0.0 12.0 0.00 0.00 0.00 93 947.9
20220924130445 65 0 0.0 12.0 0.00 0.00 0.00 93 948.0
20220924125428 65 0 0.0 12.0 0.00 0.00 0.00 93 948.0
20220924124411 65 18 0.0 12.0 0.00 0.00 0.00 93 948.3
20220924123910 65 18 0.0 12.0 0.00 0.00 0.00 93 948.6
20220924123409 65 18 0.0 12.0 0.00 0.00 0.00 93 948.6
20220924122352 65 0 0.0 12.0 0.00 0.00 0.00 93 948.3
20220924121851 65 0 0.0 12.0 0.00 0.00 0.00 93 948.4
20220924120318 65 0 0.0 12.0 0.00 0.00 0.00 93 948.4
20220924115817 65 0 0.0 12.0 0.00 0.00 0.00 93 947.6
20220924115316 64 0 0.0 12.0 0.00 0.00 0.00 93 948.5
20220924114259 64 0 0.0 12.0 0.00 0.00 0.00 92 948.5
20220924113758 64 0 0.0 12.0 0.00 0.00 0.00 91 947.7
20220924113257 64 0 0.0 12.0 0.00 0.00 0.00 90 948.4
20220924112756 65 0 0.0 12.0 0.00 0.00 0.00 90 948.7
20220924112255 65 0 0.0 12.0 0.00 0.00 0.00 93 947.6
20220924111238 65 0 0.0 12.0 0.00 0.00 0.00 93 948.7
20220924110737 65 0 0.0 12.0 0.00 0.00 0.00 93 948.6
20220924105204 65 0 0.0 12.0 0.00 0.00 0.00 93 948.9
20220924104703 64 0 0.0 12.0 0.00 0.00 0.00 92 948.9
20220924103646 64 0 0.0 12.0 0.00 0.00 0.00 92 948.8
20220924102113 64 0 0.0 12.0 0.00 0.00 0.00 91 949.4
20220924101612 65 0 0.0 12.0 0.00 0.00 0.00 91 948.9
20220924101111 65 0 0.0 12.0 0.00 0.00 0.00 91 948.3
20220924100610 65 0 0.0 12.0 0.00 0.00 0.00 92 949.2
20220924100109 65 0 0.0 12.0 0.00 0.00 0.00 91 949.0
20220924095608 65 21 0.0 12.0 0.00 0.00 0.19 90 949.2
20220924094551 65 12 0.0 12.0 0.00 0.00 0.19 91 949.3
20220924093534 66 0 0.0 12.0 0.00 0.00 0.19 92 949.6
20220924093033 66 0 0.0 12.0 0.00 0.00 0.19 92 949.5
20220924092532 66 0 0.0 12.0 0.00 0.00 0.19 92 949.6
20220924092031 66 0 0.0 12.0 0.00 0.00 0.19 92 949.7
20220924091530 66 0 0.0 12.0 0.00 0.00 0.19 93 948.8
20220924091029 66 0 0.0 12.0 0.00 0.00 0.19 93 949.7
20220924090012 66 0 0.0 12.0 0.00 0.00 0.19 93 949.8
20220924085511 65 0 0.0 12.0 0.00 0.00 0.19 93 950.0
20220924084454 65 0 1.0 12.0 0.00 0.00 0.19 92 949.7
20220924083953 65 0 1.0 12.0 0.00 0.00 0.19 91 950.0
20220924082936 65 7 1.0 12.0 0.00 0.00 0.19 89 949.4
20220924082435 65 13 1.0 12.0 0.00 0.00 0.19 88 949.6
20220924081934 66 21 2.0 12.0 0.00 0.00 0.19 87 949.7
20220924081433 67 10 2.0 12.0 0.00 0.00 0.19 88 949.2
20220924075344 66 16 0.0 12.0 0.00 0.00 0.19 93 949.4
20220924074843 65 16 1.0 12.0 0.00 0.00 0.19 93 948.5
20220924074342 65 17 3.0 12.0 0.00 0.00 0.19 91 949.4
20220924073841 65 16 2.0 12.0 0.00 0.00 0.19 91 949.2
20220924072824 65 0 1.0 12.0 0.00 0.00 0.19 91 948.4
20220924072323 65 0 1.0 12.0 0.00 0.00 0.19 91 949.2
20220924070234 65 2 0.0 12.0 0.00 0.00 0.19 90 949.5
20220924064701 65 2 0.0 12.0 0.00 0.00 0.19 91 949.1
20220924064200 65 2 0.0 12.0 0.00 0.00 0.19 89 949.2
20220924063143 65 2 1.0 12.0 0.00 0.00 0.19 88 948.9
20220924062642 65 2 1.0 12.0 0.00 0.00 0.19 88 948.8
20220924062141 66 2 1.0 12.0 0.00 0.00 0.19 88 948.7
20220924061640 66 2 1.0 12.0 0.00 0.00 0.19 89 947.7
20220924054519 67 359 0.0 12.0 0.00 0.00 0.19 93 948.9
20220924054019 67 359 0.0 12.0 0.00 0.00 0.19 93 948.7
20220924053517 67 359 0.0 12.0 0.00 0.00 0.19 94 948.6
20220924053016 67 359 0.0 12.0 0.00 0.00 0.19 94 948.2
20220924052515 68 359 0.0 12.0 0.00 0.00 0.19 94 947.6
20220924052014 68 359 0.0 12.0 0.00 0.00 0.19 94 948.2
20220924050957 68 338 0.0 12.0 0.00 0.00 0.19 94 948.3
20220924050456 68 338 0.0 12.0 0.00 0.00 0.19 94 948.2
20220924045955 68 338 0.0 12.0 0.00 0.00 0.19 94 948.5
20220924045454 69 338 0.0 12.0 0.00 0.00 0.19 94 948.3
20220924044953 69 338 0.0 12.0 0.00 0.00 0.19 93 947.4
20220924043936 69 338 0.0 12.0 0.00 0.00 0.19 93 948.0
20220924043436 69 313 0.0 12.0 0.00 0.00 0.19 93 948.0
20220924042419 70 296 0.0 12.0 0.00 0.00 0.19 91 947.9
20220924040329 71 158 0.0 12.0 0.00 0.00 0.19 90 947.6
20220924035828 71 266 0.0 12.0 0.00 0.00 0.19 91 946.9
20220924034256 71 266 0.0 12.0 0.00 0.00 0.19 92 947.5
20220924033239 72 256 1.0 12.0 0.00 0.00 0.19 93 947.6
20220924032738 72 269 2.0 12.0 0.00 0.00 0.19 92 947.6
20220924032237 72 287 1.0 12.0 0.00 0.00 0.19 92 947.3
20220924031736 72 250 1.0 12.0 0.00 0.00 0.19 91 947.5
20220924031235 72 255 1.0 12.0 0.00 0.00 0.19 90 947.6
20220924030734 72 259 3.0 12.0 0.00 0.00 0.19 90 947.5
20220924030232 72 277 3.0 12.0 0.00 0.00 0.19 90 947.6
20220924025731 73 260 3.0 12.0 0.00 0.00 0.19 89 947.4
20220924024714 73 259 2.0 12.0 0.00 0.00 0.19 89 947.5
20220924023657 73 273 4.0 12.0 0.01 0.00 0.19 88 947.5
20220924022641 74 263 4.0 12.0 0.01 0.00 0.19 89 947.2
20220924022140 74 260 3.0 12.0 0.01 0.00 0.19 89 947.1
20220924021639 74 254 3.0 12.0 0.01 0.00 0.19 90 947.2
20220924021138 73 244 3.0 12.0 0.01 0.00 0.19 91 947.3
20220924020637 73 267 4.0 12.0 0.01 0.00 0.19 91 947.5
20220924015620 74 275 4.0 12.0 0.01 0.00 0.19 89 947.4
20220924015119 74 267 3.0 12.0 0.01 0.00 0.19 89 947.3
20220924014102 75 267 2.0 12.0 0.01 0.00 0.19 88 947.2
20220924013045 74 272 2.0 12.0 0.01 0.00 0.18 91 947.4
20220924012544 74 251 2.0 12.0 0.01 0.00 0.18 91 947.4
20220924012043 73 287 2.0 12.0 0.02 0.00 0.18 91 947.3
20220924010510 73 293 1.0 12.0 0.02 0.00 0.18 93 947.2
20220924005453 72 261 1.0 12.0 0.02 0.00 0.18 94 947.1
20220924004952 72 262 1.0 12.0 0.02 0.00 0.18 94 947.3
20220924003419 71 261 1.0 12.0 0.06 0.00 0.18 93 947.4
20220924002918 71 282 0.0 12.0 0.09 0.00 0.17 94 947.2
20220924002417 71 257 0.0 12.0 0.17 0.00 0.17 94 946.8
20220924001916 71 233 1.0 12.0 0.16 0.00 0.16 93 947.3
20220923235827 72 276 0.0 12.0 0.16 0.00 0.16 91 947.6
20220923235326 72 288 0.0 12.0 0.16 0.00 0.16 90 947.8
20220923234309 72 323 0.0 12.0 0.14 0.00 0.14 89 947.5